Time;durP1;ratioP1;P1;durP2;ratioP2;P2;SDS_P1;SDS_P2;PMS_P1;PMS_P2;Temp;Humidity;BMP_temperature;BMP_pressure;BME280_temperature;BME280_humidity;BME280_pressure;Samples;Min_cycle;Max_cycle;Signal;HPM_P1;HPM_P2
2022/11/12 00:02:09;;;;;;;6.72;4.68;;;;;;;;;;4984679;28;20022;-46
2022/11/12 00:04:34;;;;;;;6.53;4.63;;;;;;;;;;4990454;28;20030;-46
2022/11/12 00:07:00;;;;;;;8.32;3.95;;;;;;;;;;4986566;28;20042;-45
2022/11/12 00:09:25;;;;;;;5.93;4.10;;;;;;;;;;4989245;28;20034;-46
2022/11/12 00:11:50;;;;;;;8.43;4.93;;;;;;;;;;4988371;28;20030;-46
2022/11/12 00:14:16;;;;;;;8.18;5.15;;;;;;;;;;4987448;28;20093;-46
2022/11/12 00:16:41;;;;;;;5.50;4.60;;;;;;;;;;4983757;28;20042;-48
2022/11/12 00:19:06;;;;;;;8.27;4.80;;;;;;;;;;4986733;28;20538;-47
2022/11/12 00:21:32;;;;;;;7.68;4.53;;;;;;;;;;4985807;28;20049;-45
2022/11/12 00:23:57;;;;;;;6.93;4.22;;;;;;;;;;4989973;28;20038;-46
2022/11/12 00:26:22;;;;;;;5.32;4.32;;;;;;;;;;4988495;28;20495;-45
2022/11/12 00:28:48;;;;;;;6.05;4.90;;;;;;;;;;4988708;28;20030;-47
2022/11/12 00:31:13;;;;;;;9.18;5.07;;;;;;;;;;4987347;28;20038;-45
2022/11/12 00:33:40;;;;;;;10.02;4.72;;;;;;;;;;4986921;28;20076;-46
2022/11/12 00:36:06;;;;;;;5.40;4.43;;;;;;;;;;4989150;28;20049;-46
2022/11/12 00:38:31;;;;;;;8.20;4.70;;;;;;;;;;4987645;28;20030;-45
2022/11/12 00:41:00;;;;;;;5.85;4.55;;;;;;;;;;4986958;28;20053;-46
2022/11/12 00:43:26;;;;;;;5.70;4.65;;;;;;;;;;4986900;28;20406;-46
2022/11/12 00:45:51;;;;;;;6.15;4.68;;;;;;;;;;4988733;28;20034;-47
2022/11/12 00:48:16;;;;;;;7.70;4.88;;;;;;;;;;4986281;28;20061;-45
2022/11/12 00:50:42;;;;;;;6.13;4.43;;;;;;;;;;4985035;28;20061;-46
2022/11/12 00:53:08;;;;;;;7.43;4.60;;;;;;;;;;5016006;28;20027;-46
2022/11/12 00:55:33;;;;;;;6.45;4.35;;;;;;;;;;4988648;28;20058;-46
2022/11/12 00:57:58;;;;;;;5.35;4.18;;;;;;;;;;4986417;28;20037;-46
2022/11/12 01:00:24;;;;;;;5.85;4.47;;;;;;;;;;4987533;28;20096;-47
2022/11/12 01:02:49;;;;;;;6.15;4.18;;;;;;;;;;4988417;28;20073;-48
2022/11/12 01:05:15;;;;;;;8.93;4.75;;;;;;;;;;4988115;28;20609;-46
2022/11/12 01:07:41;;;;;;;5.68;4.10;;;;;;;;;;4984448;28;20067;-47
2022/11/12 01:10:09;;;;;;;6.97;4.20;;;;;;;;;;4987342;28;20062;-46
2022/11/12 01:12:35;;;;;;;5.13;4.07;;;;;;;;;;4988852;28;20026;-46
2022/11/12 01:15:00;;;;;;;7.50;4.50;;;;;;;;;;4988310;28;20049;-46
2022/11/12 01:17:26;;;;;;;5.32;4.00;;;;;;;;;;4987529;28;20034;-47
2022/11/12 01:19:52;;;;;;;6.32;4.57;;;;;;;;;;4986095;28;20113;-45
2022/11/12 01:22:17;;;;;;;5.68;4.13;;;;;;;;;;4987400;28;20410;-47
2022/11/12 01:24:42;;;;;;;6.60;4.32;;;;;;;;;;4988339;28;20403;-43
2022/11/12 01:27:08;;;;;;;7.00;4.35;;;;;;;;;;4987370;28;20022;-47
2022/11/12 01:29:33;;;;;;;5.78;3.90;;;;;;;;;;4987977;28;20125;-46
2022/11/12 01:31:59;;;;;;;5.93;4.05;;;;;;;;;;4986612;28;20034;-46
2022/11/12 01:34:25;;;;;;;8.75;4.70;;;;;;;;;;4988533;28;20022;-49
2022/11/12 01:36:51;;;;;;;5.22;3.97;;;;;;;;;;4985054;28;20038;-46
2022/11/12 01:39:16;;;;;;;5.50;4.55;;;;;;;;;;4985972;28;20026;-46
2022/11/12 01:41:42;;;;;;;7.63;4.07;;;;;;;;;;4988643;28;20113;-46
2022/11/12 01:44:28;;;;;;;5.75;4.35;;;;;;;;;;4988668;28;20069;-45
2022/11/12 01:47:15;;;;;;;6.55;4.53;;;;;;;;;;4983974;28;20062;-47
2022/11/12 01:50:00;;;;;;;8.38;5.40;;;;;;;;;;4986254;28;20042;-46
2022/11/12 01:52:40;;;;;;;9.57;4.22;;;;;;;;;;4988110;28;20042;-45
2022/11/12 01:55:17;;;;;;;9.27;4.53;;;;;;;;;;4986967;28;20065;-45
2022/11/12 01:57:48;;;;;;;5.28;4.45;;;;;;;;;;4986475;28;20033;-45
2022/11/12 02:00:15;;;;;;;6.83;4.30;;;;;;;;;;4986166;28;20121;-46
2022/11/12 02:02:45;;;;;;;5.45;4.43;;;;;;;;;;4987099;28;20050;-45
2022/11/12 02:05:12;;;;;;;5.65;4.22;;;;;;;;;;4985364;28;20042;-48
2022/11/12 02:07:40;;;;;;;7.55;4.32;;;;;;;;;;4984160;28;20019;-45
2022/11/12 02:10:07;;;;;;;9.23;4.30;;;;;;;;;;4982103;28;20049;-46
2022/11/12 02:15:17;;;;;;;6.25;4.25;;;;;;;;;;4986810;28;20150;-49
2022/11/12 02:17:42;;;;;;;7.75;4.82;;;;;;;;;;4990497;28;20513;-47
2022/11/12 02:20:10;;;;;;;9.02;4.43;;;;;;;;;;4988231;28;20030;-46
2022/11/12 02:22:35;;;;;;;8.52;4.50;;;;;;;;;;4988340;28;20026;-45
2022/11/12 02:25:01;;;;;;;7.72;4.53;;;;;;;;;;4988624;28;20053;-45
2022/11/12 02:27:27;;;;;;;6.20;4.68;;;;;;;;;;4990136;28;20052;-48
2022/11/12 02:29:52;;;;;;;5.80;4.20;;;;;;;;;;4989520;28;20422;-44
2022/11/12 02:32:17;;;;;;;4.72;3.67;;;;;;;;;;4992304;28;20042;-46
2022/11/12 02:34:43;;;;;;;5.55;3.95;;;;;;;;;;4991400;28;20030;-45
2022/11/12 02:37:08;;;;;;;8.73;4.45;;;;;;;;;;4989992;28;20031;-45
2022/11/12 02:39:34;;;;;;;4.50;4.00;;;;;;;;;;4989639;28;20049;-45
2022/11/12 02:41:59;;;;;;;5.65;4.28;;;;;;;;;;4990047;28;20053;-46
2022/11/12 02:44:24;;;;;;;3.92;3.50;;;;;;;;;;4991644;28;20042;-45
2022/11/12 02:46:50;;;;;;;4.13;3.83;;;;;;;;;;4991784;28;20038;-45
2022/11/12 02:49:15;;;;;;;7.35;4.30;;;;;;;;;;4990467;28;20034;-46
2022/11/12 02:51:40;;;;;;;8.07;4.20;;;;;;;;;;4988957;28;20041;-45
2022/11/12 02:54:06;;;;;;;5.28;3.60;;;;;;;;;;4991170;28;20697;-45
2022/11/12 02:56:31;;;;;;;8.23;3.80;;;;;;;;;;4989027;28;20138;-45
2022/11/12 02:58:57;;;;;;;5.35;3.88;;;;;;;;;;4987314;28;20023;-45
2022/11/12 03:01:22;;;;;;;17.70;4.50;;;;;;;;;;4990098;28;20038;-46
2022/11/12 03:03:48;;;;;;;3.90;3.60;;;;;;;;;;4988906;28;20426;-46
2022/11/12 03:06:13;;;;;;;7.35;3.85;;;;;;;;;;4990653;28;20038;-47
2022/11/12 03:08:38;;;;;;;3.72;3.28;;;;;;;;;;4990574;28;20388;-46
2022/11/12 03:11:12;;;;;;;5.65;3.30;;;;;;;;;;4990199;28;20121;-49
2022/11/12 03:13:38;;;;;;;5.38;3.65;;;;;;;;;;4987157;28;20026;-49
2022/11/12 03:16:04;;;;;;;5.18;3.17;;;;;;;;;;4989170;28;20479;-46
2022/11/12 03:18:29;;;;;;;4.85;3.28;;;;;;;;;;4987492;28;20061;-45
2022/11/12 03:20:55;;;;;;;4.68;3.38;;;;;;;;;;4986874;28;20081;-45
2022/11/12 03:23:20;;;;;;;7.45;3.33;;;;;;;;;;4990292;28;20038;-45
2022/11/12 03:25:46;;;;;;;5.72;3.08;;;;;;;;;;4988661;28;20125;-45
2022/11/12 03:28:13;;;;;;;4.90;3.17;;;;;;;;;;4988705;28;20493;-46
2022/11/12 03:30:40;;;;;;;7.05;2.70;;;;;;;;;;4983001;28;20031;-45
2022/11/12 03:33:09;;;;;;;7.78;2.72;;;;;;;;;;4989181;28;20026;-46
2022/11/12 03:35:35;;;;;;;4.40;2.97;;;;;;;;;;4991389;28;20038;-45
2022/11/12 03:38:00;;;;;;;6.22;3.40;;;;;;;;;;4990278;28;20030;-45
2022/11/12 03:40:26;;;;;;;6.30;2.90;;;;;;;;;;4988439;28;20035;-45
2022/11/12 03:42:52;;;;;;;3.20;2.90;;;;;;;;;;4989058;28;20033;-46
2022/11/12 03:45:20;;;;;;;3.03;2.70;;;;;;;;;;4988781;28;20410;-46
2022/11/12 03:47:47;;;;;;;5.13;2.60;;;;;;;;;;4990416;28;20018;-45
2022/11/12 03:50:14;;;;;;;7.25;2.70;;;;;;;;;;4989142;28;20042;-46
2022/11/12 03:52:45;;;;;;;2.85;2.60;;;;;;;;;;4988742;28;20635;-46
2022/11/12 03:55:10;;;;;;;4.57;2.85;;;;;;;;;;4986876;28;20052;-45
2022/11/12 03:57:35;;;;;;;2.00;1.90;;;;;;;;;;4989263;28;20034;-46
2022/11/12 04:00:01;;;;;;;2.53;2.33;;;;;;;;;;4987900;28;20057;-45
2022/11/12 04:02:28;;;;;;;4.90;2.67;;;;;;;;;;4989511;28;20386;-45
2022/11/12 04:10:22;;;;;;;2.58;2.30;;;;;;;;;;4987480;28;20515;-45
2022/11/12 04:15:31;;;;;;;4.30;2.47;;;;;;;;;;4985901;28;20073;-45
2022/11/12 04:23:24;;;;;;;4.00;2.05;;;;;;;;;;4989760;28;20128;-45
2022/11/12 04:28:33;;;;;;;3.60;2.30;;;;;;;;;;4988161;28;20034;-46
2022/11/12 04:30:59;;;;;;;2.63;2.40;;;;;;;;;;4987406;28;20039;-45
2022/11/12 04:33:24;;;;;;;5.32;2.50;;;;;;;;;;4989443;28;20022;-46
2022/11/12 04:35:49;;;;;;;3.28;2.55;;;;;;;;;;4987510;28;20065;-45
2022/11/12 04:38:15;;;;;;;8.05;2.33;;;;;;;;;;4986167;28;20043;-45
2022/11/12 04:46:08;;;;;;;3.33;2.40;;;;;;;;;;4985554;28;20150;-46
2022/11/12 04:48:33;;;;;;;2.53;2.20;;;;;;;;;;4988858;28;20101;-46
2022/11/12 04:51:01;;;;;;;2.80;2.13;;;;;;;;;;4987095;28;20039;-46
2022/11/12 04:53:29;;;;;;;2.35;2.13;;;;;;;;;;4986332;28;20045;-46
2022/11/12 04:55:56;;;;;;;4.82;2.45;;;;;;;;;;4987212;28;20511;-46
2022/11/12 04:58:22;;;;;;;4.75;2.20;;;;;;;;;;4985553;28;20124;-45
2022/11/12 05:00:48;;;;;;;3.30;2.25;;;;;;;;;;4987421;28;20527;-45
2022/11/12 05:03:14;;;;;;;3.80;2.40;;;;;;;;;;4986547;28;20030;-45
2022/11/12 05:05:39;;;;;;;4.05;2.08;;;;;;;;;;4987600;28;20042;-47
2022/11/12 05:08:05;;;;;;;3.50;2.42;;;;;;;;;;4987959;28;20599;-45
2022/11/12 05:10:30;;;;;;;5.30;2.33;;;;;;;;;;4987040;28;20490;-46
2022/11/12 05:12:56;;;;;;;2.53;2.25;;;;;;;;;;4988710;28;20420;-46
2022/11/12 05:15:22;;;;;;;2.60;1.98;;;;;;;;;;4988323;28;20046;-46
2022/11/12 05:17:47;;;;;;;2.35;2.15;;;;;;;;;;4983192;28;20487;-48
2022/11/12 05:20:13;;;;;;;2.17;2.05;;;;;;;;;;4987312;28;20435;-47
2022/11/12 05:22:39;;;;;;;2.38;2.17;;;;;;;;;;4985835;28;20054;-46
2022/11/12 05:25:06;;;;;;;2.20;1.98;;;;;;;;;;4985888;28;20061;-46
2022/11/12 05:27:32;;;;;;;3.10;2.25;;;;;;;;;;4987162;28;20030;-45
2022/11/12 05:29:58;;;;;;;2.65;2.40;;;;;;;;;;4982817;28;20065;-45
2022/11/12 05:32:23;;;;;;;3.45;2.40;;;;;;;;;;4988721;28;20069;-46
2022/11/12 05:34:49;;;;;;;3.60;2.65;;;;;;;;;;4988032;28;20033;-47
2022/11/12 05:37:15;;;;;;;2.50;2.30;;;;;;;;;;4988420;28;20031;-45
2022/11/12 05:39:40;;;;;;;4.40;2.30;;;;;;;;;;4987692;28;20030;-45
2022/11/12 05:42:06;;;;;;;6.03;2.40;;;;;;;;;;4982803;28;23320;-47
2022/11/12 05:44:32;;;;;;;2.30;2.10;;;;;;;;;;4988042;28;20402;-46
2022/11/12 05:46:57;;;;;;;4.18;2.53;;;;;;;;;;4988523;28;20038;-46
2022/11/12 05:49:22;;;;;;;2.88;2.15;;;;;;;;;;4987272;28;20027;-45
2022/11/12 05:51:48;;;;;;;2.25;2.00;;;;;;;;;;4984712;28;20449;-46
2022/11/12 05:54:13;;;;;;;2.40;2.20;;;;;;;;;;4987841;28;20074;-45
2022/11/12 05:56:39;;;;;;;2.03;1.88;;;;;;;;;;4986953;28;20038;-45
2022/11/12 05:59:07;;;;;;;2.20;2.10;;;;;;;;;;4987563;28;20034;-45
2022/11/12 06:01:37;;;;;;;1.70;1.60;;;;;;;;;;4987107;28;20641;-45
2022/11/12 06:04:02;;;;;;;2.25;2.08;;;;;;;;;;4986600;28;20042;-48
2022/11/12 06:06:28;;;;;;;6.68;2.60;;;;;;;;;;4986800;28;20042;-47
2022/11/12 06:08:53;;;;;;;5.82;2.22;;;;;;;;;;4985642;28;20034;-46
2022/11/12 06:11:18;;;;;;;3.08;1.90;;;;;;;;;;4986307;28;20132;-46
2022/11/12 06:13:44;;;;;;;2.28;2.08;;;;;;;;;;4986550;28;20787;-45
2022/11/12 06:16:09;;;;;;;8.45;2.13;;;;;;;;;;4986236;28;20041;-45
2022/11/12 06:18:35;;;;;;;4.68;2.20;;;;;;;;;;4986750;28;20430;-45
2022/11/12 06:21:21;;;;;;;2.03;1.90;;;;;;;;;;4986156;28;20475;-45
2022/11/12 06:23:53;;;;;;;2.38;2.00;;;;;;;;;;4982503;28;20023;-45
2022/11/12 06:26:19;;;;;;;2.47;2.17;;;;;;;;;;4983449;28;20054;-47
2022/11/12 06:28:45;;;;;;;3.50;2.28;;;;;;;;;;4987532;28;20029;-45
2022/11/12 06:31:11;;;;;;;5.85;2.13;;;;;;;;;;4985923;28;20066;-45
2022/11/12 06:33:37;;;;;;;3.17;2.22;;;;;;;;;;4985646;28;20446;-45
2022/11/12 06:36:04;;;;;;;2.65;2.30;;;;;;;;;;4987276;28;20052;-46
2022/11/12 06:38:31;;;;;;;3.80;2.40;;;;;;;;;;4987526;28;20019;-45
2022/11/12 06:40:57;;;;;;;2.92;2.60;;;;;;;;;;4985368;28;20035;-48
2022/11/12 06:43:23;;;;;;;2.65;2.45;;;;;;;;;;4988617;28;20080;-46
2022/11/12 06:45:49;;;;;;;4.70;2.20;;;;;;;;;;4982976;28;20043;-47
2022/11/12 06:48:14;;;;;;;2.97;2.33;;;;;;;;;;4977701;28;20061;-45
2022/11/12 06:50:39;;;;;;;5.70;2.10;;;;;;;;;;4986764;28;20038;-45
2022/11/12 06:53:05;;;;;;;3.30;2.30;;;;;;;;;;4988193;28;20018;-46
2022/11/12 06:55:30;;;;;;;2.88;2.30;;;;;;;;;;4986468;28;20054;-46
2022/11/12 06:57:56;;;;;;;2.72;2.17;;;;;;;;;;4984651;28;20054;-46
2022/11/12 07:00:22;;;;;;;2.35;2.15;;;;;;;;;;4986311;28;20402;-45
2022/11/12 07:02:47;;;;;;;5.03;2.33;;;;;;;;;;4986882;28;20080;-46
2022/11/12 07:05:12;;;;;;;3.40;1.98;;;;;;;;;;4988026;28;20577;-44
2022/11/12 07:07:38;;;;;;;3.10;2.20;;;;;;;;;;4990166;28;20046;-47
2022/11/12 07:10:04;;;;;;;6.65;2.55;;;;;;;;;;4990807;28;20034;-45
2022/11/12 07:12:29;;;;;;;3.20;2.30;;;;;;;;;;4991739;28;20026;-46
2022/11/12 07:14:55;;;;;;;4.75;1.90;;;;;;;;;;4986253;28;20379;-45
2022/11/12 07:17:20;;;;;;;4.85;2.30;;;;;;;;;;4987966;28;20022;-45
2022/11/12 07:19:46;;;;;;;5.00;2.50;;;;;;;;;;4990618;28;20389;-45
2022/11/12 07:22:11;;;;;;;5.72;2.45;;;;;;;;;;4987707;28;20031;-45
2022/11/12 07:24:36;;;;;;;4.10;2.00;;;;;;;;;;4989662;28;20490;-45
2022/11/12 07:27:02;;;;;;;3.17;1.90;;;;;;;;;;4990552;28;20048;-46
2022/11/12 07:29:27;;;;;;;2.33;2.10;;;;;;;;;;4989238;28;20515;-47
2022/11/12 07:31:53;;;;;;;2.75;2.05;;;;;;;;;;4988360;28;20447;-44
2022/11/12 07:34:18;;;;;;;2.10;1.88;;;;;;;;;;4989500;28;20161;-45
2022/11/12 07:36:43;;;;;;;3.25;2.20;;;;;;;;;;4989953;28;20041;-45
2022/11/12 07:39:09;;;;;;;2.30;1.98;;;;;;;;;;4988214;28;20501;-45
2022/11/12 07:41:34;;;;;;;2.75;2.20;;;;;;;;;;4987869;28;22853;-46
2022/11/12 07:43:59;;;;;;;5.10;1.95;;;;;;;;;;4990589;28;20361;-45
2022/11/12 07:46:26;;;;;;;3.53;1.92;;;;;;;;;;4987641;28;20140;-46
2022/11/12 07:48:52;;;;;;;2.75;1.90;;;;;;;;;;4988203;28;20022;-46
2022/11/12 07:51:20;;;;;;;4.20;1.80;;;;;;;;;;4985364;28;20046;-45
2022/11/12 07:53:47;;;;;;;2.28;1.98;;;;;;;;;;4985281;28;20054;-46
2022/11/12 07:56:15;;;;;;;2.70;2.08;;;;;;;;;;4983965;28;20657;-46
2022/11/12 07:58:41;;;;;;;2.60;2.15;;;;;;;;;;4988867;28;20038;-45
2022/11/12 08:01:08;;;;;;;4.65;2.75;;;;;;;;;;4984744;28;20368;-46
2022/11/12 08:03:33;;;;;;;5.32;3.22;;;;;;;;;;4987803;28;20041;-46
2022/11/12 08:06:00;;;;;;;6.50;3.50;;;;;;;;;;4984086;28;20046;-46
2022/11/12 08:08:25;;;;;;;5.70;3.47;;;;;;;;;;4985552;28;20034;-46
2022/11/12 08:10:58;;;;;;;4.05;2.97;;;;;;;;;;4987624;28;20030;-45
2022/11/12 08:13:23;;;;;;;3.70;2.50;;;;;;;;;;4981203;28;20117;-46
2022/11/12 08:15:49;;;;;;;3.70;2.60;;;;;;;;;;4986466;28;20118;-46
2022/11/12 08:18:15;;;;;;;2.85;1.95;;;;;;;;;;4980628;28;20785;-46
2022/11/12 08:20:41;;;;;;;3.33;2.08;;;;;;;;;;4983872;28;20042;-46
2022/11/12 12:03:14;;;;;;;12.68;8.43;;;;;;;;;;5305116;22;1460015;-42
2022/11/12 12:05:40;;;;;;;6.15;5.30;;;;;;;;;;6044822;23;20031;-42
2022/11/12 12:08:43;;;;;;;9.82;6.28;;;;;;;;;;6042904;23;20066;-44
2022/11/12 12:11:23;;;;;;;12.35;5.68;;;;;;;;;;5984419;24;20041;-43
2022/11/12 12:14:00;;;;;;;8.50;5.10;;;;;;;;;;5983921;24;20024;-41
2022/11/12 12:16:37;;;;;;;6.22;4.20;;;;;;;;;;5984942;24;20016;-42
2022/11/12 12:19:16;;;;;;;5.82;4.47;;;;;;;;;;5984990;24;20028;-41
2022/11/12 12:21:47;;;;;;;4.40;3.95;;;;;;;;;;5985244;24;20011;-42
2022/11/12 12:24:45;;;;;;;4.85;4.10;;;;;;;;;;5984884;24;20032;-45
2022/11/12 12:27:29;;;;;;;5.75;4.30;;;;;;;;;;5984831;24;20015;-40
2022/11/12 12:30:02;;;;;;;5.43;3.80;;;;;;;;;;5984757;24;20530;-41
2022/11/12 12:32:48;;;;;;;7.00;4.30;;;;;;;;;;5984400;24;20012;-45
2022/11/12 12:35:25;;;;;;;3.90;3.60;;;;;;;;;;5984449;24;20035;-45
2022/11/12 12:38:12;;;;;;;5.38;4.47;;;;;;;;;;5985354;24;20012;-40
2022/11/12 12:40:51;;;;;;;4.95;4.00;;;;;;;;;;5984696;24;20062;-41
2022/11/12 12:43:42;;;;;;;5.53;4.57;;;;;;;;;;5983363;24;22764;-41
2022/11/12 12:46:11;;;;;;;6.85;4.10;;;;;;;;;;6032141;23;20011;-42
2022/11/12 12:48:42;;;;;;;4.93;4.18;;;;;;;;;;6037460;23;20082;-41
2022/11/12 12:51:08;;;;;;;5.78;3.80;;;;;;;;;;6037708;23;20014;-40
2022/11/12 12:53:35;;;;;;;7.07;3.40;;;;;;;;;;6038151;23;20015;-44
2022/11/12 12:56:29;;;;;;;4.53;3.35;;;;;;;;;;6038201;23;20430;-41
2022/11/12 12:58:55;;;;;;;3.60;3.20;;;;;;;;;;5978180;24;20028;-42
2022/11/12 13:01:21;;;;;;;8.85;3.38;;;;;;;;;;5977695;24;20550;-40
2022/11/12 13:03:57;;;;;;;5.40;3.90;;;;;;;;;;5977663;24;20568;-41
2022/11/12 13:06:24;;;;;;;7.85;3.40;;;;;;;;;;5978207;24;20012;-40
2022/11/12 13:09:13;;;;;;;5.18;3.30;;;;;;;;;;5977580;24;20025;-45
2022/11/12 13:12:20;;;;;;;5.25;3.05;;;;;;;;;;5979002;24;20518;-40
2022/11/12 13:14:29;;;;;;;10.27;3.17;;;;;;;;;;5977137;23;20029;-40
2022/11/12 13:17:07;;;;;;;6.80;2.60;;;;;;;;;;5978792;24;20019;-42
2022/11/12 13:19:35;;;;;;;4.25;3.05;;;;;;;;;;5978018;24;20063;-43
2022/11/12 13:22:16;;;;;;;2.95;2.65;;;;;;;;;;5978686;24;20012;-43
2022/11/12 13:24:59;;;;;;;2.80;2.53;;;;;;;;;;5978226;24;20020;-42
2022/11/12 13:28:07;;;;;;;7.95;4.40;;;;;;;;;;5978205;24;20008;-40
2022/11/12 13:30:33;;;;;;;8.88;2.50;;;;;;;;;;5970664;24;20032;-40
2022/11/12 13:32:59;;;;;;;3.38;2.50;;;;;;;;;;5978045;24;20491;-40
2022/11/12 13:35:36;;;;;;;9.63;2.92;;;;;;;;;;6001008;23;20007;-42
2022/11/12 13:38:07;;;;;;;2.88;2.60;;;;;;;;;;6035934;23;20070;-42
2022/11/12 13:40:48;;;;;;;3.00;2.50;;;;;;;;;;6038109;23;20378;-40
2022/11/12 13:43:31;;;;;;;3.10;2.63;;;;;;;;;;6036540;23;20414;-43
2022/11/12 13:46:06;;;;;;;4.05;2.65;;;;;;;;;;6037951;23;20431;-40
2022/11/12 13:48:56;;;;;;;2.72;2.30;;;;;;;;;;6037367;23;20447;-42
2022/11/12 13:51:33;;;;;;;5.28;2.50;;;;;;;;;;6037745;23;20031;-40
2022/11/12 13:53:59;;;;;;;7.28;2.60;;;;;;;;;;6035619;23;20450;-40
2022/11/12 13:56:34;;;;;;;5.07;2.22;;;;;;;;;;6036369;23;20527;-41
2022/11/12 13:59:15;;;;;;;5.97;2.17;;;;;;;;;;6037143;23;20067;-46
2022/11/12 14:01:41;;;;;;;2.17;2.08;;;;;;;;;;6040045;23;20012;-42
2022/11/12 14:04:11;;;;;;;1.65;1.55;;;;;;;;;;6065879;23;20026;-45
2022/11/12 14:06:41;;;;;;;1.00;0.95;;;;;;;;;;6065713;23;20094;-40
2022/11/12 14:09:24;;;;;;;1.02;1.00;;;;;;;;;;6065658;23;20382;-43
2022/11/12 14:12:19;;;;;;;1.35;1.00;;;;;;;;;;6066729;23;19999;-43
2022/11/12 14:14:57;;;;;;;1.10;1.00;;;;;;;;;;6065817;23;20023;-43
2022/11/12 14:17:36;;;;;;;1.77;1.25;;;;;;;;;;6066392;23;20011;-44
2022/11/12 14:20:13;;;;;;;3.05;1.38;;;;;;;;;;6064447;23;20742;-41
2022/11/12 14:22:41;;;;;;;1.60;1.45;;;;;;;;;;6065641;23;20022;-40
2022/11/12 14:25:17;;;;;;;1.65;1.38;;;;;;;;;;6065606;23;20015;-45
2022/11/12 14:27:42;;;;;;;2.75;1.60;;;;;;;;;;6065847;23;20546;-40
2022/11/12 14:30:15;;;;;;;1.10;1.10;;;;;;;;;;6065666;23;20094;-46
2022/11/12 14:32:43;;;;;;;2.97;1.58;;;;;;;;;;6066385;23;20030;-43
2022/11/12 14:35:26;;;;;;;2.05;1.40;;;;;;;;;;6064371;23;20023;-40
2022/11/12 14:37:56;;;;;;;3.95;1.60;;;;;;;;;;6066344;23;20010;-40
2022/11/12 14:40:23;;;;;;;2.20;1.77;;;;;;;;;;6065440;23;20019;-43
2022/11/12 14:42:50;;;;;;;2.90;1.88;;;;;;;;;;6065231;23;20536;-40
2022/11/12 14:45:18;;;;;;;1.70;1.50;;;;;;;;;;6065364;23;20067;-43
2022/11/12 14:47:46;;;;;;;1.95;1.70;;;;;;;;;;6065355;23;20013;-41
2022/11/12 14:50:27;;;;;;;2.05;1.73;;;;;;;;;;6065074;23;20110;-40
2022/11/12 14:53:04;;;;;;;2.33;1.80;;;;;;;;;;6065734;23;20433;-41
2022/11/12 14:55:33;;;;;;;2.65;2.05;;;;;;;;;;6094449;23;20062;-39
2022/11/12 14:57:59;;;;;;;2.25;2.05;;;;;;;;;;6093308;23;20006;-41
2022/11/12 15:00:30;;;;;;;2.65;2.45;;;;;;;;;;6065864;23;20722;-40
2022/11/12 15:03:00;;;;;;;2.95;2.00;;;;;;;;;;6065187;23;20014;-40
2022/11/12 15:05:27;;;;;;;4.88;2.10;;;;;;;;;;6064917;23;20508;-42
2022/11/12 15:08:03;;;;;;;3.17;2.22;;;;;;;;;;6065965;23;20054;-42
2022/11/12 15:10:37;;;;;;;2.60;2.40;;;;;;;;;;6064816;23;20848;-45
2022/11/12 15:13:16;;;;;;;5.10;2.38;;;;;;;;;;6065640;23;20018;-44
2022/11/12 15:16:09;;;;;;;3.22;2.00;;;;;;;;;;6065801;23;20007;-40
2022/11/12 15:18:36;;;;;;;2.83;2.22;;;;;;;;;;6061887;23;20015;-45
2022/11/12 15:21:14;;;;;;;3.67;2.15;;;;;;;;;;6065497;23;20013;-40
2022/11/12 15:23:52;;;;;;;3.08;2.40;;;;;;;;;;6065266;23;20484;-40
2022/11/12 15:26:40;;;;;;;2.35;2.15;;;;;;;;;;6065766;23;20317;-39
2022/11/12 15:29:23;;;;;;;4.25;2.10;;;;;;;;;;6065069;23;20018;-39
2022/11/12 15:31:56;;;;;;;2.83;2.50;;;;;;;;;;6065724;23;20011;-41
2022/11/12 15:34:32;;;;;;;4.75;2.97;;;;;;;;;;6064327;23;20038;-40
2022/11/12 15:37:02;;;;;;;6.40;2.65;;;;;;;;;;6066095;23;20335;-40
2022/11/12 15:39:28;;;;;;;3.88;2.25;;;;;;;;;;6063400;23;20015;-44
2022/11/12 15:42:02;;;;;;;2.10;1.80;;;;;;;;;;6065419;23;20488;-42
2022/11/12 15:44:32;;;;;;;2.88;2.20;;;;;;;;;;6065105;23;20378;-40
2022/11/12 15:46:58;;;;;;;3.55;2.78;;;;;;;;;;6065827;23;20003;-42
2022/11/12 15:49:23;;;;;;;6.82;4.47;;;;;;;;;;6065026;23;20029;-41
2022/11/12 15:51:48;;;;;;;8.10;3.95;;;;;;;;;;6064608;23;20042;-41
2022/11/12 15:54:14;;;;;;;7.50;4.07;;;;;;;;;;6064552;23;20023;-39
2022/11/12 15:56:39;;;;;;;6.25;4.63;;;;;;;;;;6065586;23;20031;-39
2022/11/12 15:59:05;;;;;;;6.00;5.50;;;;;;;;;;6065116;23;20046;-39
2022/11/12 16:01:30;;;;;;;6.22;5.60;;;;;;;;;;6065339;23;20385;-39
2022/11/12 16:03:55;;;;;;;12.43;10.13;;;;;;;;;;6064176;23;20451;-40
2022/11/12 16:06:21;;;;;;;18.42;12.48;;;;;;;;;;6065523;23;20003;-39
2022/11/12 16:08:46;;;;;;;11.20;8.15;;;;;;;;;;6064746;23;20142;-39
2022/11/12 16:11:34;;;;;;;12.48;8.30;;;;;;;;;;6065564;23;20307;-39
2022/11/12 16:13:58;;;;;;;9.10;5.55;;;;;;;;;;6064667;23;20065;-39
2022/11/12 16:16:23;;;;;;;6.15;4.82;;;;;;;;;;6065592;23;20077;-39
2022/11/12 16:18:49;;;;;;;9.00;4.97;;;;;;;;;;6064985;23;20023;-39
2022/11/12 16:21:14;;;;;;;8.70;5.40;;;;;;;;;;6067192;23;20007;-40
2022/11/12 16:23:39;;;;;;;9.10;4.35;;;;;;;;;;6066211;23;20026;-39
2022/11/12 16:26:07;;;;;;;10.95;4.60;;;;;;;;;;6067386;23;20315;-40
2022/11/12 16:28:34;;;;;;;8.20;4.55;;;;;;;;;;6066910;23;20373;-40
2022/11/12 16:30:59;;;;;;;11.18;4.78;;;;;;;;;;6067307;23;20003;-39
2022/11/12 16:33:25;;;;;;;7.05;4.35;;;;;;;;;;6065998;23;20030;-39
2022/11/12 16:35:50;;;;;;;8.73;4.60;;;;;;;;;;6066964;23;20073;-39
2022/11/12 16:38:16;;;;;;;7.10;4.50;;;;;;;;;;6066523;23;20054;-39
2022/11/12 16:40:43;;;;;;;9.30;4.47;;;;;;;;;;6067223;23;20620;-40
2022/11/12 16:43:08;;;;;;;7.97;4.13;;;;;;;;;;6066481;23;20011;-39
2022/11/12 16:45:37;;;;;;;5.78;3.50;;;;;;;;;;6067266;23;20007;-39
2022/11/12 16:48:11;;;;;;;7.82;3.67;;;;;;;;;;6065924;23;20026;-38
2022/11/12 16:50:36;;;;;;;5.13;3.20;;;;;;;;;;6067190;23;20402;-42
2022/11/12 16:53:01;;;;;;;6.68;3.75;;;;;;;;;;6065985;23;20003;-38
2022/11/12 16:55:27;;;;;;;3.90;2.88;;;;;;;;;;6067166;23;20010;-39
2022/11/12 16:57:52;;;;;;;3.55;2.85;;;;;;;;;;6066708;23;20007;-40
2022/11/12 17:00:18;;;;;;;5.40;3.08;;;;;;;;;;6065273;23;20027;-41
2022/11/12 17:02:44;;;;;;;6.90;3.55;;;;;;;;;;6066028;23;20049;-39
2022/11/12 17:05:14;;;;;;;11.73;4.22;;;;;;;;;;6065389;23;20023;-39
2022/11/12 17:07:40;;;;;;;8.57;4.90;;;;;;;;;;6066610;23;20117;-40
2022/11/12 17:10:06;;;;;;;8.80;6.40;;;;;;;;;;6066394;23;20046;-40
2022/11/12 17:12:31;;;;;;;5.65;4.18;;;;;;;;;;6066689;23;20003;-39
2022/11/12 17:14:56;;;;;;;12.00;4.60;;;;;;;;;;6066446;23;20015;-39
2022/11/12 17:17:22;;;;;;;8.52;4.55;;;;;;;;;;6066870;23;20003;-40
2022/11/12 17:19:47;;;;;;;6.93;4.15;;;;;;;;;;6065756;23;20019;-39
2022/11/12 17:22:12;;;;;;;6.75;5.10;;;;;;;;;;6039969;23;20007;-40
2022/11/12 17:24:38;;;;;;;9.68;6.95;;;;;;;;;;6065727;23;20350;-40
2022/11/12 17:27:03;;;;;;;12.93;7.20;;;;;;;;;;6066875;23;20086;-41
2022/11/12 17:29:28;;;;;;;8.52;5.97;;;;;;;;;;6066058;23;20354;-42
2022/11/12 17:31:54;;;;;;;12.38;6.88;;;;;;;;;;6066930;23;20037;-41
2022/11/12 17:34:19;;;;;;;11.27;5.95;;;;;;;;;;6065921;23;20464;-39
2022/11/12 17:36:45;;;;;;;16.65;8.27;;;;;;;;;;6065529;23;20015;-40
2022/11/12 17:39:11;;;;;;;13.65;8.57;;;;;;;;;;6065859;23;20018;-41
2022/11/12 17:41:37;;;;;;;15.88;9.13;;;;;;;;;;6066980;23;20078;-39
2022/11/12 17:44:03;;;;;;;9.40;6.97;;;;;;;;;;6065862;23;20101;-39
2022/11/12 17:46:29;;;;;;;7.75;5.85;;;;;;;;;;6066607;23;20013;-39
2022/11/12 17:48:55;;;;;;;8.13;5.90;;;;;;;;;;6066155;23;20019;-40
2022/11/12 17:51:23;;;;;;;6.50;4.95;;;;;;;;;;6065948;23;20042;-40
2022/11/12 17:53:49;;;;;;;8.25;4.65;;;;;;;;;;6065422;23;20022;-40
2022/11/12 17:56:17;;;;;;;5.43;4.85;;;;;;;;;;6066833;23;20007;-40
2022/11/12 17:58:47;;;;;;;4.50;3.50;;;;;;;;;;6065942;23;20018;-39
2022/11/12 18:01:20;;;;;;;3.65;3.35;;;;;;;;;;6066160;23;20007;-39
2022/11/12 18:03:49;;;;;;;10.32;4.05;;;;;;;;;;6064879;23;20454;-40
2022/11/12 18:06:16;;;;;;;6.88;4.90;;;;;;;;;;6066062;23;20027;-39
2022/11/12 18:08:42;;;;;;;9.30;4.93;;;;;;;;;;6065909;23;20015;-39
2022/11/12 18:11:09;;;;;;;13.55;9.43;;;;;;;;;;6066555;23;20003;-39
2022/11/12 18:13:35;;;;;;;15.63;8.25;;;;;;;;;;6066079;23;20029;-40
2022/11/12 18:16:01;;;;;;;14.52;8.85;;;;;;;;;;6066338;23;20002;-39
2022/11/12 18:18:28;;;;;;;12.77;9.50;;;;;;;;;;6065273;23;20062;-40
2022/11/12 18:20:54;;;;;;;13.52;9.50;;;;;;;;;;6065917;23;20473;-39
2022/11/12 18:23:19;;;;;;;14.25;10.15;;;;;;;;;;6065564;23;20019;-41
2022/11/12 18:25:44;;;;;;;18.58;13.75;;;;;;;;;;6066254;23;20058;-39
2022/11/12 18:28:10;;;;;;;9.93;5.65;;;;;;;;;;6065829;23;20010;-40
2022/11/12 18:30:36;;;;;;;18.00;11.30;;;;;;;;;;6066329;23;20065;-39
2022/11/12 18:33:01;;;;;;;7.05;6.35;;;;;;;;;;6064575;23;20150;-39
2022/11/12 18:35:27;;;;;;;10.48;7.78;;;;;;;;;;6064972;23;20090;-39
2022/11/12 18:37:52;;;;;;;9.10;6.85;;;;;;;;;;6065481;23;20018;-39
2022/11/12 18:40:18;;;;;;;9.65;6.72;;;;;;;;;;6065755;23;20015;-38
2022/11/12 18:42:44;;;;;;;9.48;6.90;;;;;;;;;;6065573;23;20010;-39
2022/11/12 18:45:09;;;;;;;9.60;7.35;;;;;;;;;;6065529;23;20021;-40
2022/11/12 18:47:35;;;;;;;11.02;6.95;;;;;;;;;;6066173;23;20086;-40
2022/11/12 18:50:00;;;;;;;15.85;8.45;;;;;;;;;;6064613;23;20042;-42
2022/11/12 18:52:25;;;;;;;12.82;8.70;;;;;;;;;;6065677;23;20338;-42
2022/11/12 18:54:51;;;;;;;25.63;17.02;;;;;;;;;;6065318;23;20030;-40